sensor_id;sensor_type;location;lat;lon;timestamp;P1;durP1;ratioP1;P2;durP2;ratioP2
34234;SDS011;20500;49.856;20.290;2024-02-23T00:01:00;6.80;;;2.30;;
34234;SDS011;20500;49.856;20.290;2024-02-23T00:04:06;3.90;;;1.40;;
34234;SDS011;20500;49.856;20.290;2024-02-23T00:10:16;8.00;;;3.00;;
34234;SDS011;20500;49.856;20.290;2024-02-23T00:13:22;5.00;;;1.60;;
34234;SDS011;20500;49.856;20.290;2024-02-23T00:16:28;5.60;;;1.70;;
34234;SDS011;20500;49.856;20.290;2024-02-23T00:19:33;5.20;;;1.70;;
34234;SDS011;20500;49.856;20.290;2024-02-23T00:22:39;4.20;;;1.40;;
34234;SDS011;20500;49.856;20.290;2024-02-23T00:25:45;4.50;;;1.60;;
34234;SDS011;20500;49.856;20.290;2024-02-23T00:28:50;6.60;;;2.20;;
34234;SDS011;20500;49.856;20.290;2024-02-23T00:31:56;3.90;;;1.50;;
34234;SDS011;20500;49.856;20.290;2024-02-23T00:35:02;5.10;;;1.80;;
34234;SDS011;20500;49.856;20.290;2024-02-23T00:38:09;4.00;;;1.50;;
34234;SDS011;20500;49.856;20.290;2024-02-23T00:41:14;6.30;;;2.20;;
34234;SDS011;20500;49.856;20.290;2024-02-23T00:44:20;6.70;;;2.20;;
34234;SDS011;20500;49.856;20.290;2024-02-23T00:47:26;4.50;;;1.60;;
34234;SDS011;20500;49.856;20.290;2024-02-23T00:53:36;5.10;;;2.00;;
34234;SDS011;20500;49.856;20.290;2024-02-23T00:56:42;5.90;;;1.90;;
34234;SDS011;20500;49.856;20.290;2024-02-23T00:59:54;6.10;;;1.80;;
34234;SDS011;20500;49.856;20.290;2024-02-23T01:03:01;5.10;;;1.70;;
34234;SDS011;20500;49.856;20.290;2024-02-23T01:06:08;6.20;;;2.10;;
34234;SDS011;20500;49.856;20.290;2024-02-23T01:09:15;6.00;;;2.30;;
34234;SDS011;20500;49.856;20.290;2024-02-23T01:12:23;5.20;;;2.10;;
34234;SDS011;20500;49.856;20.290;2024-02-23T01:18:34;7.30;;;2.60;;
34234;SDS011;20500;49.856;20.290;2024-02-23T01:24:45;9.20;;;3.20;;
34234;SDS011;20500;49.856;20.290;2024-02-23T01:30:55;9.10;;;3.30;;
34234;SDS011;20500;49.856;20.290;2024-02-23T01:34:02;4.00;;;1.70;;
34234;SDS011;20500;49.856;20.290;2024-02-23T01:37:09;4.00;;;1.50;;
34234;SDS011;20500;49.856;20.290;2024-02-23T01:40:16;3.40;;;1.20;;
34234;SDS011;20500;49.856;20.290;2024-02-23T01:43:22;4.30;;;1.50;;
34234;SDS011;20500;49.856;20.290;2024-02-23T01:49:33;4.10;;;1.70;;
34234;SDS011;20500;49.856;20.290;2024-02-23T01:52:40;2.90;;;1.40;;
34234;SDS011;20500;49.856;20.290;2024-02-23T01:55:47;5.30;;;1.60;;
34234;SDS011;20500;49.856;20.290;2024-02-23T01:58:54;3.70;;;1.50;;
34234;SDS011;20500;49.856;20.290;2024-02-23T02:02:01;5.90;;;2.20;;
34234;SDS011;20500;49.856;20.290;2024-02-23T02:05:07;4.10;;;1.40;;
34234;SDS011;20500;49.856;20.290;2024-02-23T02:08:14;4.10;;;1.30;;
34234;SDS011;20500;49.856;20.290;2024-02-23T02:11:21;3.50;;;1.50;;
34234;SDS011;20500;49.856;20.290;2024-02-23T02:14:27;3.40;;;1.50;;
34234;SDS011;20500;49.856;20.290;2024-02-23T02:17:36;4.50;;;1.50;;
34234;SDS011;20500;49.856;20.290;2024-02-23T02:23:51;4.70;;;1.80;;
34234;SDS011;20500;49.856;20.290;2024-02-23T02:26:57;3.60;;;1.50;;
34234;SDS011;20500;49.856;20.290;2024-02-23T02:30:03;3.80;;;1.40;;
34234;SDS011;20500;49.856;20.290;2024-02-23T02:33:11;3.30;;;1.30;;
34234;SDS011;20500;49.856;20.290;2024-02-23T02:39:21;4.20;;;1.40;;
34234;SDS011;20500;49.856;20.290;2024-02-23T02:45:33;5.00;;;1.30;;
34234;SDS011;20500;49.856;20.290;2024-02-23T02:48:39;4.80;;;1.30;;
34234;SDS011;20500;49.856;20.290;2024-02-23T02:54:50;4.70;;;1.80;;
34234;SDS011;20500;49.856;20.290;2024-02-23T02:57:56;5.20;;;1.90;;
34234;SDS011;20500;49.856;20.290;2024-02-23T03:01:03;5.10;;;1.90;;
34234;SDS011;20500;49.856;20.290;2024-02-23T03:04:09;5.90;;;1.80;;
34234;SDS011;20500;49.856;20.290;2024-02-23T03:10:20;5.70;;;2.20;;
34234;SDS011;20500;49.856;20.290;2024-02-23T03:13:27;5.30;;;1.80;;
34234;SDS011;20500;49.856;20.290;2024-02-23T03:16:34;5.20;;;1.80;;
34234;SDS011;20500;49.856;20.290;2024-02-23T03:19:41;8.00;;;2.70;;
34234;SDS011;20500;49.856;20.290;2024-02-23T03:22:47;6.80;;;2.30;;
34234;SDS011;20500;49.856;20.290;2024-02-23T03:25:53;3.80;;;1.60;;
34234;SDS011;20500;49.856;20.290;2024-02-23T03:32:05;7.60;;;2.30;;
34234;SDS011;20500;49.856;20.290;2024-02-23T03:35:12;7.50;;;2.40;;
34234;SDS011;20500;49.856;20.290;2024-02-23T03:38:18;5.50;;;1.90;;
34234;SDS011;20500;49.856;20.290;2024-02-23T03:41:24;7.50;;;2.00;;
34234;SDS011;20500;49.856;20.290;2024-02-23T03:44:31;5.00;;;1.80;;
34234;SDS011;20500;49.856;20.290;2024-02-23T03:50:42;6.10;;;2.20;;
34234;SDS011;20500;49.856;20.290;2024-02-23T03:53:48;5.50;;;1.80;;
34234;SDS011;20500;49.856;20.290;2024-02-23T03:56:54;5.90;;;2.10;;
34234;SDS011;20500;49.856;20.290;2024-02-23T04:00:00;5.80;;;2.00;;
34234;SDS011;20500;49.856;20.290;2024-02-23T04:03:09;5.50;;;2.00;;
34234;SDS011;20500;49.856;20.290;2024-02-23T04:06:15;5.00;;;1.80;;
34234;SDS011;20500;49.856;20.290;2024-02-23T04:09:21;9.50;;;4.10;;
34234;SDS011;20500;49.856;20.290;2024-02-23T04:12:28;9.30;;;3.90;;
34234;SDS011;20500;49.856;20.290;2024-02-23T04:15:34;8.20;;;2.50;;
34234;SDS011;20500;49.856;20.290;2024-02-23T04:21:45;5.90;;;2.00;;
34234;SDS011;20500;49.856;20.290;2024-02-23T04:24:51;7.50;;;2.30;;
34234;SDS011;20500;49.856;20.290;2024-02-23T04:31:02;4.80;;;1.90;;
34234;SDS011;20500;49.856;20.290;2024-02-23T04:34:08;4.40;;;1.80;;
34234;SDS011;20500;49.856;20.290;2024-02-23T04:37:15;5.60;;;2.00;;
34234;SDS011;20500;49.856;20.290;2024-02-23T04:43:26;5.20;;;2.00;;
34234;SDS011;20500;49.856;20.290;2024-02-23T04:46:32;5.40;;;2.10;;
34234;SDS011;20500;49.856;20.290;2024-02-23T04:49:39;6.80;;;2.30;;
34234;SDS011;20500;49.856;20.290;2024-02-23T04:55:50;6.50;;;2.10;;
34234;SDS011;20500;49.856;20.290;2024-02-23T04:58:56;7.30;;;2.20;;
34234;SDS011;20500;49.856;20.290;2024-02-23T05:02:02;6.00;;;2.20;;
34234;SDS011;20500;49.856;20.290;2024-02-23T05:05:09;6.60;;;2.40;;
34234;SDS011;20500;49.856;20.290;2024-02-23T05:08:15;7.40;;;2.30;;
34234;SDS011;20500;49.856;20.290;2024-02-23T05:14:27;5.70;;;1.90;;
34234;SDS011;20500;49.856;20.290;2024-02-23T05:17:33;6.60;;;2.60;;
34234;SDS011;20500;49.856;20.290;2024-02-23T05:20:39;5.00;;;2.10;;
34234;SDS011;20500;49.856;20.290;2024-02-23T05:23:45;6.70;;;2.30;;
34234;SDS011;20500;49.856;20.290;2024-02-23T05:26:52;7.50;;;2.20;;
34234;SDS011;20500;49.856;20.290;2024-02-23T05:30:01;6.70;;;2.40;;
34234;SDS011;20500;49.856;20.290;2024-02-23T05:33:07;5.50;;;1.80;;
34234;SDS011;20500;49.856;20.290;2024-02-23T05:36:14;5.90;;;2.30;;
34234;SDS011;20500;49.856;20.290;2024-02-23T05:39:21;5.70;;;2.30;;
34234;SDS011;20500;49.856;20.290;2024-02-23T05:42:27;5.40;;;2.20;;
34234;SDS011;20500;49.856;20.290;2024-02-23T05:45:33;7.40;;;2.40;;
34234;SDS011;20500;49.856;20.290;2024-02-23T05:51:44;8.80;;;3.10;;
34234;SDS011;20500;49.856;20.290;2024-02-23T05:57:58;9.00;;;3.20;;
34234;SDS011;20500;49.856;20.290;2024-02-23T06:01:06;6.50;;;2.60;;
34234;SDS011;20500;49.856;20.290;2024-02-23T06:07:17;5.50;;;2.10;;
34234;SDS011;20500;49.856;20.290;2024-02-23T06:10:30;6.90;;;2.60;;
34234;SDS011;20500;49.856;20.290;2024-02-23T06:13:36;6.70;;;2.40;;
34234;SDS011;20500;49.856;20.290;2024-02-23T06:19:47;5.20;;;2.10;;
34234;SDS011;20500;49.856;20.290;2024-02-23T06:22:53;7.00;;;2.50;;
34234;SDS011;20500;49.856;20.290;2024-02-23T06:26:00;6.30;;;2.30;;
34234;SDS011;20500;49.856;20.290;2024-02-23T06:29:07;5.60;;;2.00;;
34234;SDS011;20500;49.856;20.290;2024-02-23T06:32:15;6.90;;;2.40;;
34234;SDS011;20500;49.856;20.290;2024-02-23T06:35:21;6.90;;;2.40;;
34234;SDS011;20500;49.856;20.290;2024-02-23T06:38:28;6.20;;;2.20;;
34234;SDS011;20500;49.856;20.290;2024-02-23T06:41:34;5.70;;;2.10;;
34234;SDS011;20500;49.856;20.290;2024-02-23T06:44:41;6.20;;;2.30;;
34234;SDS011;20500;49.856;20.290;2024-02-23T06:50:52;6.80;;;2.00;;
34234;SDS011;20500;49.856;20.290;2024-02-23T06:54:00;4.40;;;1.90;;
34234;SDS011;20500;49.856;20.290;2024-02-23T06:57:07;5.80;;;2.00;;
34234;SDS011;20500;49.856;20.290;2024-02-23T07:00:14;7.30;;;2.40;;
34234;SDS011;20500;49.856;20.290;2024-02-23T07:03:20;6.70;;;2.30;;
34234;SDS011;20500;49.856;20.290;2024-02-23T07:06:27;6.70;;;2.20;;
34234;SDS011;20500;49.856;20.290;2024-02-23T07:09:35;6.10;;;2.30;;
34234;SDS011;20500;49.856;20.290;2024-02-23T07:12:41;6.70;;;2.30;;
34234;SDS011;20500;49.856;20.290;2024-02-23T07:18:52;6.40;;;2.20;;
34234;SDS011;20500;49.856;20.290;2024-02-23T07:21:59;4.50;;;1.70;;
34234;SDS011;20500;49.856;20.290;2024-02-23T07:25:07;7.80;;;2.80;;
34234;SDS011;20500;49.856;20.290;2024-02-23T07:28:13;9.30;;;2.60;;
34234;SDS011;20500;49.856;20.290;2024-02-23T07:31:21;7.80;;;2.50;;
34234;SDS011;20500;49.856;20.290;2024-02-23T07:34:27;7.60;;;2.80;;
34234;SDS011;20500;49.856;20.290;2024-02-23T07:37:34;5.20;;;2.10;;
34234;SDS011;20500;49.856;20.290;2024-02-23T07:40:41;7.60;;;2.40;;
34234;SDS011;20500;49.856;20.290;2024-02-23T07:46:52;6.90;;;2.40;;
34234;SDS011;20500;49.856;20.290;2024-02-23T07:49:58;8.20;;;2.60;;
34234;SDS011;20500;49.856;20.290;2024-02-23T07:53:05;7.30;;;2.70;;
34234;SDS011;20500;49.856;20.290;2024-02-23T07:56:12;5.00;;;2.20;;
34234;SDS011;20500;49.856;20.290;2024-02-23T08:02:22;6.20;;;2.20;;
34234;SDS011;20500;49.856;20.290;2024-02-23T08:05:29;7.90;;;2.90;;
34234;SDS011;20500;49.856;20.290;2024-02-23T08:08:36;7.80;;;2.80;;
34234;SDS011;20500;49.856;20.290;2024-02-23T08:11:42;6.70;;;2.20;;
34234;SDS011;20500;49.856;20.290;2024-02-23T08:14:49;6.70;;;2.60;;
34234;SDS011;20500;49.856;20.290;2024-02-23T08:17:56;8.20;;;2.90;;
34234;SDS011;20500;49.856;20.290;2024-02-23T08:21:02;7.60;;;2.40;;
34234;SDS011;20500;49.856;20.290;2024-02-23T08:24:10;6.70;;;2.60;;
34234;SDS011;20500;49.856;20.290;2024-02-23T08:27:16;5.50;;;2.10;;
34234;SDS011;20500;49.856;20.290;2024-02-23T08:30:22;8.20;;;2.70;;
34234;SDS011;20500;49.856;20.290;2024-02-23T08:36:33;6.10;;;2.00;;
34234;SDS011;20500;49.856;20.290;2024-02-23T08:42:44;5.30;;;2.00;;
34234;SDS011;20500;49.856;20.290;2024-02-23T08:45:52;7.20;;;2.60;;
34234;SDS011;20500;49.856;20.290;2024-02-23T08:49:04;5.90;;;2.10;;
34234;SDS011;20500;49.856;20.290;2024-02-23T08:55:14;6.60;;;2.20;;
34234;SDS011;20500;49.856;20.290;2024-02-23T08:58:21;6.20;;;2.30;;
34234;SDS011;20500;49.856;20.290;2024-02-23T09:04:32;8.90;;;2.40;;
34234;SDS011;20500;49.856;20.290;2024-02-23T09:07:38;6.20;;;2.00;;
34234;SDS011;20500;49.856;20.290;2024-02-23T09:10:45;6.50;;;2.20;;
34234;SDS011;20500;49.856;20.290;2024-02-23T09:16:56;6.00;;;2.10;;
34234;SDS011;20500;49.856;20.290;2024-02-23T09:20:02;8.40;;;2.60;;
34234;SDS011;20500;49.856;20.290;2024-02-23T09:23:10;6.70;;;2.40;;
34234;SDS011;20500;49.856;20.290;2024-02-23T09:29:21;8.40;;;2.90;;
34234;SDS011;20500;49.856;20.290;2024-02-23T09:35:32;7.60;;;2.60;;
34234;SDS011;20500;49.856;20.290;2024-02-23T09:38:38;10.20;;;3.10;;
34234;SDS011;20500;49.856;20.290;2024-02-23T09:41:45;8.40;;;2.30;;
34234;SDS011;20500;49.856;20.290;2024-02-23T09:44:57;5.70;;;2.20;;
34234;SDS011;20500;49.856;20.290;2024-02-23T09:48:05;7.50;;;2.50;;
34234;SDS011;20500;49.856;20.290;2024-02-23T09:51:15;6.90;;;2.60;;
34234;SDS011;20500;49.856;20.290;2024-02-23T09:54:21;8.30;;;2.80;;
34234;SDS011;20500;49.856;20.290;2024-02-23T10:00:32;8.90;;;3.30;;
34234;SDS011;20500;49.856;20.290;2024-02-23T10:03:41;9.20;;;3.40;;
34234;SDS011;20500;49.856;20.290;2024-02-23T10:06:49;6.90;;;2.30;;
34234;SDS011;20500;49.856;20.290;2024-02-23T10:09:55;9.00;;;3.20;;
34234;SDS011;20500;49.856;20.290;2024-02-23T10:13:02;9.00;;;3.10;;
34234;SDS011;20500;49.856;20.290;2024-02-23T10:16:08;7.60;;;2.60;;
34234;SDS011;20500;49.856;20.290;2024-02-23T10:19:18;9.00;;;3.00;;
34234;SDS011;20500;49.856;20.290;2024-02-23T10:25:29;8.50;;;3.00;;
34234;SDS011;20500;49.856;20.290;2024-02-23T10:28:37;7.10;;;2.50;;
34234;SDS011;20500;49.856;20.290;2024-02-23T10:34:52;8.10;;;3.20;;
34234;SDS011;20500;49.856;20.290;2024-02-23T10:37:59;7.20;;;2.60;;
34234;SDS011;20500;49.856;20.290;2024-02-23T10:41:08;7.00;;;2.60;;
34234;SDS011;20500;49.856;20.290;2024-02-23T10:44:17;8.00;;;3.20;;
34234;SDS011;20500;49.856;20.290;2024-02-23T10:47:25;7.60;;;2.60;;
34234;SDS011;20500;49.856;20.290;2024-02-23T10:50:32;8.50;;;2.60;;
34234;SDS011;20500;49.856;20.290;2024-02-23T10:53:40;7.30;;;2.40;;
34234;SDS011;20500;49.856;20.290;2024-02-23T10:56:48;6.10;;;2.00;;
34234;SDS011;20500;49.856;20.290;2024-02-23T10:59:55;8.00;;;2.90;;
34234;SDS011;20500;49.856;20.290;2024-02-23T11:03:02;7.60;;;2.60;;
34234;SDS011;20500;49.856;20.290;2024-02-23T11:06:11;10.00;;;3.70;;
34234;SDS011;20500;49.856;20.290;2024-02-23T11:09:22;6.40;;;2.20;;
34234;SDS011;20500;49.856;20.290;2024-02-23T11:12:30;8.30;;;2.90;;
34234;SDS011;20500;49.856;20.290;2024-02-23T11:15:41;7.40;;;2.30;;
34234;SDS011;20500;49.856;20.290;2024-02-23T11:18:47;8.10;;;2.70;;
34234;SDS011;20500;49.856;20.290;2024-02-23T11:21:54;6.70;;;2.40;;
34234;SDS011;20500;49.856;20.290;2024-02-23T11:25:02;5.60;;;2.10;;
34234;SDS011;20500;49.856;20.290;2024-02-23T11:28:23;8.90;;;3.20;;
34234;SDS011;20500;49.856;20.290;2024-02-23T11:31:30;9.40;;;3.50;;
34234;SDS011;20500;49.856;20.290;2024-02-23T11:37:51;10.90;;;3.80;;
34234;SDS011;20500;49.856;20.290;2024-02-23T11:41:03;6.10;;;2.30;;
34234;SDS011;20500;49.856;20.290;2024-02-23T11:44:09;6.60;;;2.10;;
34234;SDS011;20500;49.856;20.290;2024-02-23T11:47:16;7.10;;;2.20;;
34234;SDS011;20500;49.856;20.290;2024-02-23T11:53:27;8.40;;;2.50;;
34234;SDS011;20500;49.856;20.290;2024-02-23T11:56:34;7.20;;;2.70;;
34234;SDS011;20500;49.856;20.290;2024-02-23T11:59:41;10.70;;;4.90;;
34234;SDS011;20500;49.856;20.290;2024-02-23T12:02:48;10.50;;;3.70;;
34234;SDS011;20500;49.856;20.290;2024-02-23T12:08:59;9.30;;;3.00;;
34234;SDS011;20500;49.856;20.290;2024-02-23T12:12:06;8.60;;;2.80;;
34234;SDS011;20500;49.856;20.290;2024-02-23T12:15:13;7.30;;;2.80;;
34234;SDS011;20500;49.856;20.290;2024-02-23T12:18:20;9.80;;;3.10;;
34234;SDS011;20500;49.856;20.290;2024-02-23T12:21:29;10.60;;;4.00;;
34234;SDS011;20500;49.856;20.290;2024-02-23T12:24:38;10.80;;;3.60;;
34234;SDS011;20500;49.856;20.290;2024-02-23T12:27:45;9.10;;;3.00;;
34234;SDS011;20500;49.856;20.290;2024-02-23T12:31:01;10.90;;;4.20;;
34234;SDS011;20500;49.856;20.290;2024-02-23T12:34:10;11.00;;;3.90;;
34234;SDS011;20500;49.856;20.290;2024-02-23T12:37:17;11.10;;;3.40;;
34234;SDS011;20500;49.856;20.290;2024-02-23T12:40:26;10.20;;;3.80;;
34234;SDS011;20500;49.856;20.290;2024-02-23T12:46:38;9.30;;;3.40;;
34234;SDS011;20500;49.856;20.290;2024-02-23T12:49:45;9.30;;;3.00;;
34234;SDS011;20500;49.856;20.290;2024-02-23T12:52:51;8.40;;;3.00;;
34234;SDS011;20500;49.856;20.290;2024-02-23T12:55:57;7.80;;;3.00;;
34234;SDS011;20500;49.856;20.290;2024-02-23T13:02:08;8.00;;;2.80;;
34234;SDS011;20500;49.856;20.290;2024-02-23T13:05:17;7.70;;;2.30;;
34234;SDS011;20500;49.856;20.290;2024-02-23T13:08:23;7.80;;;2.50;;
34234;SDS011;20500;49.856;20.290;2024-02-23T13:11:30;10.00;;;3.20;;
34234;SDS011;20500;49.856;20.290;2024-02-23T13:14:37;9.10;;;3.30;;
34234;SDS011;20500;49.856;20.290;2024-02-23T13:17:43;8.20;;;3.00;;
34234;SDS011;20500;49.856;20.290;2024-02-23T13:20:50;7.80;;;2.80;;
34234;SDS011;20500;49.856;20.290;2024-02-23T13:23:56;9.80;;;2.50;;
34234;SDS011;20500;49.856;20.290;2024-02-23T13:30:08;8.40;;;2.90;;
34234;SDS011;20500;49.856;20.290;2024-02-23T13:33:15;8.70;;;3.40;;
34234;SDS011;20500;49.856;20.290;2024-02-23T13:36:24;8.70;;;3.30;;
34234;SDS011;20500;49.856;20.290;2024-02-23T13:42:35;8.40;;;3.10;;
34234;SDS011;20500;49.856;20.290;2024-02-23T13:45:49;8.20;;;3.10;;
34234;SDS011;20500;49.856;20.290;2024-02-23T13:49:03;8.10;;;3.00;;
34234;SDS011;20500;49.856;20.290;2024-02-23T13:52:10;8.40;;;2.70;;
34234;SDS011;20500;49.856;20.290;2024-02-23T13:55:16;7.90;;;2.60;;
34234;SDS011;20500;49.856;20.290;2024-02-23T13:58:24;9.00;;;2.90;;
34234;SDS011;20500;49.856;20.290;2024-02-23T14:01:31;8.70;;;3.10;;
34234;SDS011;20500;49.856;20.290;2024-02-23T14:07:42;7.40;;;2.80;;
34234;SDS011;20500;49.856;20.290;2024-02-23T14:10:49;7.70;;;2.50;;
34234;SDS011;20500;49.856;20.290;2024-02-23T14:13:55;7.10;;;2.40;;
34234;SDS011;20500;49.856;20.290;2024-02-23T14:17:02;8.80;;;3.10;;
34234;SDS011;20500;49.856;20.290;2024-02-23T14:20:09;8.40;;;2.70;;
34234;SDS011;20500;49.856;20.290;2024-02-23T14:23:16;8.30;;;2.80;;
34234;SDS011;20500;49.856;20.290;2024-02-23T14:26:23;8.00;;;2.80;;
34234;SDS011;20500;49.856;20.290;2024-02-23T14:29:29;9.10;;;3.00;;
34234;SDS011;20500;49.856;20.290;2024-02-23T14:32:35;9.20;;;3.40;;
34234;SDS011;20500;49.856;20.290;2024-02-23T14:35:43;10.20;;;3.90;;
34234;SDS011;20500;49.856;20.290;2024-02-23T14:38:50;9.70;;;3.60;;
34234;SDS011;20500;49.856;20.290;2024-02-23T14:41:56;9.90;;;4.20;;
34234;SDS011;20500;49.856;20.290;2024-02-23T14:45:03;11.10;;;4.40;;
34234;SDS011;20500;49.856;20.290;2024-02-23T14:48:10;9.80;;;3.70;;
34234;SDS011;20500;49.856;20.290;2024-02-23T14:51:16;8.60;;;3.20;;
34234;SDS011;20500;49.856;20.290;2024-02-23T14:54:23;8.60;;;3.30;;
34234;SDS011;20500;49.856;20.290;2024-02-23T14:57:30;10.60;;;4.00;;
34234;SDS011;20500;49.856;20.290;2024-02-23T15:00:36;9.20;;;3.80;;
34234;SDS011;20500;49.856;20.290;2024-02-23T15:06:46;11.00;;;5.40;;
34234;SDS011;20500;49.856;20.290;2024-02-23T15:09:53;12.60;;;6.80;;
34234;SDS011;20500;49.856;20.290;2024-02-23T15:12:59;12.00;;;5.90;;
34234;SDS011;20500;49.856;20.290;2024-02-23T15:19:10;10.80;;;4.80;;
34234;SDS011;20500;49.856;20.290;2024-02-23T15:22:16;12.10;;;5.90;;
34234;SDS011;20500;49.856;20.290;2024-02-23T15:28:27;12.80;;;5.50;;
34234;SDS011;20500;49.856;20.290;2024-02-23T15:34:42;11.90;;;5.80;;
34234;SDS011;20500;49.856;20.290;2024-02-23T15:40:53;13.70;;;7.50;;
34234;SDS011;20500;49.856;20.290;2024-02-23T15:47:04;15.10;;;7.60;;
34234;SDS011;20500;49.856;20.290;2024-02-23T15:50:11;15.20;;;7.00;;
34234;SDS011;20500;49.856;20.290;2024-02-23T15:53:37;13.40;;;6.60;;
34234;SDS011;20500;49.856;20.290;2024-02-23T15:56:43;16.00;;;8.00;;
34234;SDS011;20500;49.856;20.290;2024-02-23T15:59:49;14.80;;;7.90;;
34234;SDS011;20500;49.856;20.290;2024-02-23T16:06:10;17.20;;;9.30;;
34234;SDS011;20500;49.856;20.290;2024-02-23T16:09:17;15.20;;;8.50;;
34234;SDS011;20500;49.856;20.290;2024-02-23T16:15:27;16.30;;;8.80;;
34234;SDS011;20500;49.856;20.290;2024-02-23T16:21:39;14.20;;;8.00;;
34234;SDS011;20500;49.856;20.290;2024-02-23T16:24:46;17.40;;;8.70;;
34234;SDS011;20500;49.856;20.290;2024-02-23T16:27:52;17.10;;;9.40;;
34234;SDS011;20500;49.856;20.290;2024-02-23T16:30:59;17.90;;;10.80;;
34234;SDS011;20500;49.856;20.290;2024-02-23T16:34:06;21.50;;;13.30;;
34234;SDS011;20500;49.856;20.290;2024-02-23T16:40:23;20.00;;;11.30;;
34234;SDS011;20500;49.856;20.290;2024-02-23T16:43:32;21.20;;;13.10;;
34234;SDS011;20500;49.856;20.290;2024-02-23T16:46:38;18.50;;;11.20;;
34234;SDS011;20500;49.856;20.290;2024-02-23T16:49:44;19.90;;;13.70;;
34234;SDS011;20500;49.856;20.290;2024-02-23T16:55:56;19.40;;;12.80;;
34234;SDS011;20500;49.856;20.290;2024-02-23T16:59:04;25.10;;;17.10;;
34234;SDS011;20500;49.856;20.290;2024-02-23T17:02:10;30.80;;;22.20;;
34234;SDS011;20500;49.856;20.290;2024-02-23T17:08:21;27.00;;;16.70;;
34234;SDS011;20500;49.856;20.290;2024-02-23T17:11:27;25.00;;;16.30;;
34234;SDS011;20500;49.856;20.290;2024-02-23T17:14:33;24.60;;;16.00;;
34234;SDS011;20500;49.856;20.290;2024-02-23T17:17:40;25.60;;;17.50;;
34234;SDS011;20500;49.856;20.290;2024-02-23T17:20:46;24.10;;;16.10;;
34234;SDS011;20500;49.856;20.290;2024-02-23T17:23:53;36.10;;;22.70;;
34234;SDS011;20500;49.856;20.290;2024-02-23T17:30:04;31.90;;;19.30;;
34234;SDS011;20500;49.856;20.290;2024-02-23T17:33:11;30.30;;;18.90;;
34234;SDS011;20500;49.856;20.290;2024-02-23T17:36:19;30.70;;;20.70;;
34234;SDS011;20500;49.856;20.290;2024-02-23T17:39:25;43.50;;;30.10;;
34234;SDS011;20500;49.856;20.290;2024-02-23T17:42:31;46.60;;;34.10;;
34234;SDS011;20500;49.856;20.290;2024-02-23T17:48:42;46.40;;;33.40;;
34234;SDS011;20500;49.856;20.290;2024-02-23T17:51:48;31.60;;;21.60;;
34234;SDS011;20500;49.856;20.290;2024-02-23T17:57:59;30.10;;;22.70;;
34234;SDS011;20500;49.856;20.290;2024-02-23T18:01:18;21.00;;;13.30;;
34234;SDS011;20500;49.856;20.290;2024-02-23T18:04:24;19.10;;;12.90;;
34234;SDS011;20500;49.856;20.290;2024-02-23T18:10:35;26.10;;;18.90;;
34234;SDS011;20500;49.856;20.290;2024-02-23T18:13:42;26.20;;;19.10;;
34234;SDS011;20500;49.856;20.290;2024-02-23T18:16:48;56.30;;;39.50;;
34234;SDS011;20500;49.856;20.290;2024-02-23T18:19:54;58.20;;;43.30;;
34234;SDS011;20500;49.856;20.290;2024-02-23T18:26:05;33.90;;;23.80;;
34234;SDS011;20500;49.856;20.290;2024-02-23T18:32:16;26.80;;;17.20;;
34234;SDS011;20500;49.856;20.290;2024-02-23T18:35:22;25.60;;;17.50;;
34234;SDS011;20500;49.856;20.290;2024-02-23T18:38:31;34.40;;;24.30;;
34234;SDS011;20500;49.856;20.290;2024-02-23T18:41:37;34.20;;;24.30;;
34234;SDS011;20500;49.856;20.290;2024-02-23T18:47:48;52.50;;;33.60;;
34234;SDS011;20500;49.856;20.290;2024-02-23T18:53:59;67.00;;;42.50;;
34234;SDS011;20500;49.856;20.290;2024-02-23T18:57:05;72.20;;;43.90;;
34234;SDS011;20500;49.856;20.290;2024-02-23T19:00:13;60.00;;;35.10;;
34234;SDS011;20500;49.856;20.290;2024-02-23T19:03:20;41.20;;;28.10;;
34234;SDS011;20500;49.856;20.290;2024-02-23T19:06:26;34.60;;;24.10;;
34234;SDS011;20500;49.856;20.290;2024-02-23T19:09:33;48.70;;;32.10;;
34234;SDS011;20500;49.856;20.290;2024-02-23T19:12:39;34.70;;;24.90;;
34234;SDS011;20500;49.856;20.290;2024-02-23T19:15:46;34.10;;;23.30;;
34234;SDS011;20500;49.856;20.290;2024-02-23T19:18:52;32.60;;;23.20;;
34234;SDS011;20500;49.856;20.290;2024-02-23T19:21:59;39.20;;;26.30;;
34234;SDS011;20500;49.856;20.290;2024-02-23T19:25:06;45.80;;;33.10;;
34234;SDS011;20500;49.856;20.290;2024-02-23T19:28:13;50.30;;;35.70;;
34234;SDS011;20500;49.856;20.290;2024-02-23T19:31:19;34.90;;;21.00;;
34234;SDS011;20500;49.856;20.290;2024-02-23T19:34:29;41.50;;;27.80;;
34234;SDS011;20500;49.856;20.290;2024-02-23T19:40:40;26.50;;;17.30;;
34234;SDS011;20500;49.856;20.290;2024-02-23T19:46:51;44.90;;;29.50;;
34234;SDS011;20500;49.856;20.290;2024-02-23T19:49:57;43.50;;;30.60;;
34234;SDS011;20500;49.856;20.290;2024-02-23T19:53:04;39.50;;;25.40;;
34234;SDS011;20500;49.856;20.290;2024-02-23T19:56:10;33.60;;;22.10;;
34234;SDS011;20500;49.856;20.290;2024-02-23T19:59:17;28.70;;;18.80;;
34234;SDS011;20500;49.856;20.290;2024-02-23T20:02:23;27.30;;;19.10;;
34234;SDS011;20500;49.856;20.290;2024-02-23T20:05:30;28.50;;;18.10;;
34234;SDS011;20500;49.856;20.290;2024-02-23T20:11:41;30.80;;;18.50;;
34234;SDS011;20500;49.856;20.290;2024-02-23T20:14:48;26.30;;;17.60;;
34234;SDS011;20500;49.856;20.290;2024-02-23T20:17:55;31.30;;;20.10;;
34234;SDS011;20500;49.856;20.290;2024-02-23T20:21:03;31.90;;;20.40;;
34234;SDS011;20500;49.856;20.290;2024-02-23T20:24:09;28.10;;;18.30;;
34234;SDS011;20500;49.856;20.290;2024-02-23T20:30:20;24.30;;;14.60;;
34234;SDS011;20500;49.856;20.290;2024-02-23T20:33:27;47.90;;;30.60;;
34234;SDS011;20500;49.856;20.290;2024-02-23T20:36:34;28.80;;;18.30;;
34234;SDS011;20500;49.856;20.290;2024-02-23T20:39:40;27.40;;;17.90;;
34234;SDS011;20500;49.856;20.290;2024-02-23T20:42:46;29.40;;;17.60;;
34234;SDS011;20500;49.856;20.290;2024-02-23T20:45:53;30.30;;;19.20;;
34234;SDS011;20500;49.856;20.290;2024-02-23T20:49:01;38.10;;;23.70;;
34234;SDS011;20500;49.856;20.290;2024-02-23T20:55:16;23.70;;;13.20;;
34234;SDS011;20500;49.856;20.290;2024-02-23T21:01:27;14.00;;;7.00;;
34234;SDS011;20500;49.856;20.290;2024-02-23T21:07:38;14.40;;;7.10;;
34234;SDS011;20500;49.856;20.290;2024-02-23T21:10:44;14.90;;;7.10;;
34234;SDS011;20500;49.856;20.290;2024-02-23T21:16:55;13.30;;;5.60;;
34234;SDS011;20500;49.856;20.290;2024-02-23T21:20:01;12.30;;;5.50;;
34234;SDS011;20500;49.856;20.290;2024-02-23T21:23:08;13.20;;;6.30;;
34234;SDS011;20500;49.856;20.290;2024-02-23T21:26:15;14.30;;;7.20;;
34234;SDS011;20500;49.856;20.290;2024-02-23T21:29:21;14.30;;;7.30;;
34234;SDS011;20500;49.856;20.290;2024-02-23T21:32:28;12.70;;;6.70;;
34234;SDS011;20500;49.856;20.290;2024-02-23T21:38:39;12.40;;;5.40;;
34234;SDS011;20500;49.856;20.290;2024-02-23T21:44:50;12.20;;;4.70;;
34234;SDS011;20500;49.856;20.290;2024-02-23T21:47:57;13.20;;;5.00;;
34234;SDS011;20500;49.856;20.290;2024-02-23T21:51:04;8.30;;;3.10;;
34234;SDS011;20500;49.856;20.290;2024-02-23T21:54:10;8.40;;;3.00;;
34234;SDS011;20500;49.856;20.290;2024-02-23T21:57:16;7.80;;;2.80;;
34234;SDS011;20500;49.856;20.290;2024-02-23T22:00:24;7.90;;;2.80;;
34234;SDS011;20500;49.856;20.290;2024-02-23T22:03:31;6.40;;;2.60;;
34234;SDS011;20500;49.856;20.290;2024-02-23T22:06:38;7.70;;;3.00;;
34234;SDS011;20500;49.856;20.290;2024-02-23T22:12:51;7.20;;;2.80;;